North Bay Jack Garland Airport

Airport
ICAO code: 
CYYB
Summary
ICAO Region: 
NAM
Territory: 
Location: 
North Bay, Ontario,
Coordinates: 
Aerial View: 
46° 21' 49" N, 79° 25' 22" W
Airport CFIT: 
Altimeter Temperature Error Correction
Airport GND: 
Aircraft Ground De/Anti Icing
Metar
Observation
CYYB 050500Z AUTO 34004KT 9SM CLR M10/M11 A3009 RMK SLP215
Station
North Bay, Ont.
Date/Time
2021-12-05 05:00:00
Wind direction
340°
Wind speed
04 kts
Lowest cloud amount
n/a
Temperature
-10°C
Dew point
-11°C
Humidity
92%
Weather condition
n/a

Description

Regional airport located in North Bay, Ontario, Canada.

Climatology

Humid Continental climate (Köppen climate classification Dfb) - Variable weather patterns and a large seasonal temperature variance. Summers are often warm and humid with frequent thunderstorms and winters can be very cold with frequent snowfall and persistent snow cover.

Runways

Designator Length Width Surface Rops
13/31 762 23 GRS No/No
18/36 1364 46 ASP Yes/Yes
8/26 3048 61 ASP Yes/Yes
Airport map: 
Aerial View: 

SKYbrary Partners:

Safety knowledge contributed by: